Time;durP1;ratioP1;P1;durP2;ratioP2;P2;SDS_P1;SDS_P2;PMS_P1;PMS_P2;Temp;Humidity;BMP_temperature;BMP_pressure;BME280_temperature;BME280_humidity;BME280_pressure;Samples;Min_cycle;Max_cycle;Signal;HPM_P1;HPM_P2
2021/11/25 00:01:04;;;;;;;20.05;11.82;;;0.70;99.90;;;;;;5048395;28;20442;-79
2021/11/25 00:03:29;;;;;;;22.83;12.32;;;0.70;99.90;;;;;;5030450;28;20136;-79
2021/11/25 00:06:01;;;;;;;22.35;12.63;;;0.80;99.90;;;;;;5049057;28;20033;-80
2021/11/25 00:08:28;;;;;;;23.27;12.18;;;0.80;99.90;;;;;;5049354;28;20038;-81
2021/11/25 00:10:54;;;;;;;21.63;12.88;;;0.80;99.90;;;;;;5030952;28;20017;-80
2021/11/25 00:13:20;;;;;;;20.08;11.73;;;0.80;99.90;;;;;;5047814;28;20022;-80
2021/11/25 00:15:46;;;;;;;19.33;11.00;;;0.90;99.90;;;;;;5050276;28;20324;-79
2021/11/25 00:18:12;;;;;;;18.50;11.20;;;0.80;99.90;;;;;;5031233;28;20049;-80
2021/11/25 00:20:37;;;;;;;21.42;11.20;;;0.80;99.90;;;;;;5048262;28;20030;-79
2021/11/25 00:23:03;;;;;;;21.42;12.85;;;0.80;99.90;;;;;;5038951;28;20036;-80
2021/11/25 00:25:29;;;;;;;22.23;12.23;;;0.80;99.90;;;;;;5030844;28;20083;-79
2021/11/25 00:27:56;;;;;;;19.10;10.85;;;0.80;99.90;;;;;;5051650;28;20033;-79
2021/11/25 00:30:22;;;;;;;19.85;11.63;;;0.70;99.90;;;;;;5050560;28;20037;-79
2021/11/25 00:32:48;;;;;;;17.20;10.32;;;0.80;99.90;;;;;;5050369;28;20043;-80
2021/11/25 00:35:14;;;;;;;19.17;11.68;;;0.80;99.90;;;;;;5050074;28;20090;-79
2021/11/25 00:37:40;;;;;;;21.55;11.70;;;0.80;99.90;;;;;;5049294;28;20025;-79
2021/11/25 00:40:15;;;;;;;22.65;11.32;;;0.80;99.90;;;;;;5032062;28;20030;-80
2021/11/25 00:42:42;;;;;;;20.55;11.38;;;0.80;99.90;;;;;;5032024;28;20029;-80
2021/11/25 00:45:11;;;;;;;19.83;10.45;;;0.80;99.90;;;;;;5050717;28;20029;-79
2021/11/25 00:47:36;;;;;;;21.55;11.82;;;0.80;99.90;;;;;;5049205;28;20049;-81
2021/11/25 00:50:07;;;;;;;22.33;12.00;;;0.90;99.90;;;;;;5032094;28;20021;-80
2021/11/25 00:52:33;;;;;;;21.80;11.50;;;0.90;99.90;;;;;;5052522;28;20068;-81
2021/11/25 00:54:59;;;;;;;19.00;11.20;;;0.90;99.90;;;;;;5049645;28;20421;-81
2021/11/25 00:57:25;;;;;;;22.02;12.93;;;0.80;99.90;;;;;;5051625;28;20028;-81
2021/11/25 00:59:51;;;;;;;19.55;12.00;;;0.90;99.90;;;;;;5069047;28;20021;-81
2021/11/25 01:02:19;;;;;;;19.48;10.90;;;0.80;99.90;;;;;;5062237;28;20109;-81
2021/11/25 01:04:45;;;;;;;19.48;11.07;;;0.80;99.90;;;;;;5046583;28;20095;-80
2021/11/25 01:07:11;;;;;;;21.30;12.23;;;0.80;99.90;;;;;;5049349;28;20049;-80
2021/11/25 01:09:37;;;;;;;23.48;13.60;;;0.80;99.90;;;;;;5049338;28;20087;-81
2021/11/25 01:12:04;;;;;;;28.02;15.57;;;0.70;99.90;;;;;;5045766;28;20022;-81
2021/11/25 01:14:34;;;;;;;27.17;14.27;;;0.60;99.90;;;;;;5045593;28;20022;-79
2021/11/25 01:17:01;;;;;;;25.42;13.82;;;0.40;99.90;;;;;;5034023;28;20033;-79
2021/11/25 01:19:27;;;;;;;27.08;15.77;;;0.50;99.90;;;;;;5051626;28;20021;-79
2021/11/25 01:21:54;;;;;;;26.50;15.57;;;0.50;99.90;;;;;;5033492;28;20033;-79
2021/11/25 01:24:23;;;;;;;26.20;14.65;;;0.40;99.90;;;;;;5063570;28;20086;-80
2021/11/25 01:26:52;;;;;;;26.90;14.13;;;0.40;99.90;;;;;;5070146;28;20437;-79
2021/11/25 01:29:21;;;;;;;29.48;16.17;;;0.50;99.90;;;;;;5070624;28;20067;-79
2021/11/25 01:31:47;;;;;;;26.65;14.88;;;0.40;99.90;;;;;;5069556;28;20088;-79
2021/11/25 01:34:13;;;;;;;27.67;15.23;;;0.40;99.90;;;;;;5057215;28;20033;-79
2021/11/25 01:36:39;;;;;;;26.15;15.95;;;0.30;99.90;;;;;;5046394;28;20025;-79
2021/11/25 01:39:05;;;;;;;30.88;16.42;;;0.40;99.90;;;;;;5048473;28;20104;-80
2021/11/25 01:41:30;;;;;;;28.15;15.60;;;0.40;99.90;;;;;;5048011;28;20057;-80
2021/11/25 01:43:56;;;;;;;35.10;15.90;;;0.40;99.90;;;;;;5047117;28;20077;-80
2021/11/25 01:46:22;;;;;;;29.50;15.10;;;0.40;99.90;;;;;;5046895;28;20026;-80
2021/11/25 01:48:50;;;;;;;28.25;16.13;;;0.40;99.90;;;;;;5046775;28;20037;-79
2021/11/25 01:51:18;;;;;;;25.17;15.57;;;0.40;99.90;;;;;;5027794;28;20037;-79
2021/11/25 01:53:47;;;;;;;31.10;16.38;;;0.40;99.90;;;;;;5064078;28;20009;-79
2021/11/25 01:56:15;;;;;;;27.10;15.07;;;0.40;99.90;;;;;;5066132;28;20448;-80
2021/11/25 01:58:42;;;;;;;29.17;15.68;;;0.40;99.90;;;;;;5035262;28;20021;-79
2021/11/25 02:01:10;;;;;;;27.73;14.98;;;0.50;99.90;;;;;;5047042;28;20037;-80
2021/11/25 02:03:38;;;;;;;30.20;15.82;;;0.60;99.90;;;;;;5028655;28;20482;-80
2021/11/25 02:06:05;;;;;;;26.02;14.13;;;0.70;99.90;;;;;;5029292;28;20120;-79
2021/11/25 02:08:31;;;;;;;28.27;14.43;;;0.70;99.90;;;;;;5049054;28;20036;-79
2021/11/25 02:10:59;;;;;;;22.48;12.90;;;0.80;99.90;;;;;;5048548;28;20041;-79
2021/11/25 02:13:26;;;;;;;23.95;13.80;;;0.80;99.90;;;;;;5046658;28;20029;-79
2021/11/25 02:15:53;;;;;;;24.15;14.15;;;0.90;99.90;;;;;;5046317;28;20470;-79
2021/11/25 02:18:22;;;;;;;25.85;14.88;;;1.00;99.90;;;;;;5051304;28;20025;-78
2021/11/25 02:20:52;;;;;;;24.02;13.23;;;0.90;99.90;;;;;;5015409;28;20064;-79
2021/11/25 02:23:18;;;;;;;22.63;13.38;;;1.00;99.90;;;;;;5076845;28;20032;-78
2021/11/25 02:25:57;;;;;;;21.02;12.90;;;1.00;99.90;;;;;;5064294;28;20033;-78
2021/11/25 02:28:34;;;;;;;25.30;12.57;;;0.90;99.90;;;;;;5037175;28;20050;-78
2021/11/25 02:31:00;;;;;;;26.10;13.85;;;0.90;99.90;;;;;;5052250;28;20132;-80
2021/11/25 02:33:26;;;;;;;22.33;12.05;;;0.90;99.90;;;;;;5053997;28;20025;-79
2021/11/25 02:35:52;;;;;;;23.80;12.68;;;0.90;99.90;;;;;;5053317;28;20036;-80
2021/11/25 02:38:18;;;;;;;22.85;13.15;;;0.90;99.90;;;;;;5032819;28;20139;-80
2021/11/25 02:40:49;;;;;;;23.27;12.82;;;0.90;99.90;;;;;;5032522;28;20101;-79
2021/11/25 02:43:24;;;;;;;23.83;12.95;;;1.00;99.90;;;;;;5032486;28;20029;-79
2021/11/25 02:45:58;;;;;;;24.05;13.40;;;1.00;99.90;;;;;;5049898;28;20073;-80
2021/11/25 02:48:27;;;;;;;26.88;13.35;;;1.00;99.90;;;;;;5053225;28;20029;-81
2021/11/25 02:50:56;;;;;;;28.38;13.95;;;1.00;99.90;;;;;;5048520;28;20028;-78
2021/11/25 02:53:25;;;;;;;24.75;13.73;;;0.90;99.90;;;;;;5060966;28;20049;-79
2021/11/25 02:55:58;;;;;;;26.88;14.77;;;0.80;99.90;;;;;;5064949;28;20085;-79
2021/11/25 02:58:26;;;;;;;27.40;14.63;;;0.90;99.90;;;;;;5047694;28;20025;-80
2021/11/25 03:00:53;;;;;;;23.42;12.98;;;0.90;99.90;;;;;;5049529;28;20032;-79
2021/11/25 03:03:19;;;;;;;25.73;13.98;;;0.90;99.90;;;;;;5032490;28;20033;-78
2021/11/25 03:05:47;;;;;;;23.25;13.00;;;1.00;99.90;;;;;;5047391;28;20029;-78
2021/11/25 03:08:16;;;;;;;23.83;13.98;;;1.10;99.90;;;;;;5049861;28;20028;-79
2021/11/25 03:10:46;;;;;;;23.15;13.85;;;1.10;99.90;;;;;;5050126;28;20470;-80
2021/11/25 03:13:14;;;;;;;26.10;14.23;;;1.10;99.90;;;;;;5049030;28;20032;-79
2021/11/25 03:15:41;;;;;;;19.27;11.57;;;1.10;99.90;;;;;;5045864;28;20033;-79
2021/11/25 03:18:09;;;;;;;22.27;12.57;;;1.10;99.90;;;;;;5049899;28;20041;-79
2021/11/25 03:20:37;;;;;;;20.77;12.65;;;1.10;99.90;;;;;;5047982;28;20090;-80
2021/11/25 03:23:05;;;;;;;26.88;14.63;;;1.00;99.90;;;;;;5051122;28;20030;-79
2021/11/25 03:25:33;;;;;;;26.55;14.80;;;0.90;99.90;;;;;;5048473;28;20461;-79
2021/11/25 03:28:00;;;;;;;26.45;13.90;;;0.80;99.90;;;;;;5039418;28;20124;-79
2021/11/25 03:30:30;;;;;;;27.00;13.18;;;0.60;99.90;;;;;;5029476;28;20044;-79
2021/11/25 03:32:56;;;;;;;23.73;13.77;;;0.60;99.90;;;;;;5030505;28;20521;-79
2021/11/25 03:35:22;;;;;;;23.58;13.57;;;0.60;99.90;;;;;;5048173;28;20033;-79
2021/11/25 03:37:47;;;;;;;22.05;12.73;;;0.60;99.90;;;;;;5048217;28;20040;-79
2021/11/25 03:40:13;;;;;;;23.65;13.23;;;0.60;99.90;;;;;;5048678;28;20093;-79
2021/11/25 03:42:39;;;;;;;21.90;12.63;;;0.70;99.90;;;;;;5048125;28;20033;-78
2021/11/25 03:45:07;;;;;;;19.45;10.85;;;0.70;99.90;;;;;;5051472;28;20013;-78
2021/11/25 03:47:33;;;;;;;25.48;14.35;;;0.70;99.90;;;;;;5049346;28;20029;-78
2021/11/25 03:49:58;;;;;;;28.60;14.88;;;0.70;99.90;;;;;;5034578;28;20032;-79
2021/11/25 03:52:27;;;;;;;27.05;13.68;;;0.60;99.90;;;;;;5046863;28;20021;-79
2021/11/25 03:54:55;;;;;;;24.83;14.13;;;0.60;99.90;;;;;;5029936;28;20029;-78
2021/11/25 03:57:24;;;;;;;26.25;13.90;;;0.50;99.90;;;;;;5051994;28;20037;-78
2021/11/25 03:59:52;;;;;;;24.10;11.43;;;0.50;99.90;;;;;;5050528;28;20010;-79
2021/11/25 04:02:19;;;;;;;26.88;14.43;;;0.50;99.90;;;;;;5048330;28;20040;-79
2021/11/25 04:04:46;;;;;;;24.63;13.63;;;0.60;99.90;;;;;;5039885;28;20021;-79
2021/11/25 04:07:12;;;;;;;25.17;13.55;;;0.60;99.90;;;;;;5040176;28;20028;-80
2021/11/25 04:09:44;;;;;;;25.52;14.20;;;0.70;99.90;;;;;;5055151;28;20034;-80
2021/11/25 04:12:15;;;;;;;22.67;13.05;;;0.70;99.90;;;;;;5048302;28;20041;-80
2021/11/25 04:14:41;;;;;;;22.73;12.25;;;0.80;99.90;;;;;;5037238;28;20037;-80
2021/11/25 04:17:15;;;;;;;20.17;11.45;;;0.90;99.90;;;;;;5065693;28;20029;-80
2021/11/25 04:19:41;;;;;;;20.10;11.00;;;0.90;99.90;;;;;;5048173;28;20020;-78
2021/11/25 04:22:06;;;;;;;18.55;11.05;;;0.90;99.90;;;;;;5056363;28;20033;-80
2021/11/25 04:24:32;;;;;;;18.35;10.90;;;1.00;99.90;;;;;;5034736;28;20029;-80
2021/11/25 04:27:00;;;;;;;23.08;12.48;;;0.90;99.90;;;;;;5050302;28;20029;-80
2021/11/25 04:29:27;;;;;;;21.67;11.75;;;0.90;99.90;;;;;;5051117;28;20028;-79
2021/11/25 04:37:22;;;;;;;18.92;10.68;;;0.90;99.90;;;;;;5044668;28;20084;-78
2021/11/25 04:39:47;;;;;;;18.63;10.80;;;0.90;99.90;;;;;;5046835;28;20018;-78
2021/11/25 04:42:13;;;;;;;26.90;14.52;;;1.00;99.90;;;;;;5045245;28;20413;-78
2021/11/25 04:44:39;;;;;;;24.95;13.60;;;0.90;99.90;;;;;;5053104;28;20025;-79
2021/11/25 04:47:05;;;;;;;23.30;12.73;;;0.80;99.90;;;;;;5031324;28;20030;-79
2021/11/25 04:49:31;;;;;;;26.63;12.63;;;0.70;99.90;;;;;;5049045;28;20029;-78
2021/11/25 04:51:56;;;;;;;21.27;11.40;;;0.70;99.90;;;;;;5029640;28;20084;-79
2021/11/25 04:54:22;;;;;;;25.20;12.93;;;0.80;99.90;;;;;;5030315;28;20445;-79
2021/11/25 04:56:48;;;;;;;21.05;13.02;;;0.90;99.90;;;;;;5049203;28;20033;-79
2021/11/25 04:59:14;;;;;;;24.23;12.25;;;0.90;99.90;;;;;;5048633;28;20025;-80
2021/11/25 05:01:39;;;;;;;22.42;12.18;;;0.90;99.90;;;;;;5049168;28;20025;-80
2021/11/25 05:04:05;;;;;;;20.25;11.98;;;0.90;99.90;;;;;;5049648;28;20017;-80
2021/11/25 05:06:31;;;;;;;21.30;11.75;;;0.90;99.90;;;;;;5049175;28;20029;-80
2021/11/25 05:08:57;;;;;;;24.35;12.82;;;1.00;99.90;;;;;;5046502;28;20056;-80
2021/11/25 05:11:23;;;;;;;22.70;12.43;;;1.00;99.90;;;;;;5030695;28;20034;-80
2021/11/25 05:13:49;;;;;;;19.83;11.50;;;0.90;99.90;;;;;;5049320;28;20092;-78
2021/11/25 05:16:15;;;;;;;21.20;12.15;;;0.80;99.90;;;;;;5037103;28;20036;-78
2021/11/25 05:18:41;;;;;;;18.85;11.00;;;0.80;99.90;;;;;;5046328;28;20025;-79
2021/11/25 05:21:06;;;;;;;24.98;12.93;;;0.80;99.90;;;;;;5045357;28;20390;-78
2021/11/25 05:23:32;;;;;;;23.52;12.52;;;0.80;99.90;;;;;;5029136;28;20022;-79
2021/11/25 05:26:01;;;;;;;23.77;12.73;;;0.60;99.90;;;;;;5046132;28;20025;-78
2021/11/25 05:28:31;;;;;;;25.17;12.95;;;0.60;99.90;;;;;;5046769;28;20025;-79
2021/11/25 05:30:56;;;;;;;23.45;12.73;;;0.50;99.90;;;;;;5012209;28;20014;-79
2021/11/25 05:33:22;;;;;;;22.00;12.63;;;0.60;99.90;;;;;;5028116;28;20028;-78
2021/11/25 05:35:48;;;;;;;24.17;12.90;;;0.70;99.90;;;;;;5046548;28;20029;-78
2021/11/25 05:38:14;;;;;;;22.70;12.40;;;0.70;99.90;;;;;;5046409;28;20032;-78
2021/11/25 05:40:41;;;;;;;20.55;11.75;;;0.70;99.90;;;;;;5046913;28;20047;-79
2021/11/25 05:43:06;;;;;;;23.27;14.10;;;0.70;99.90;;;;;;5043020;28;20033;-79
2021/11/25 05:45:32;;;;;;;26.95;13.10;;;0.70;99.90;;;;;;5029900;28;20027;-78
2021/11/25 05:47:58;;;;;;;23.65;12.02;;;0.60;99.90;;;;;;5059737;28;20033;-79
2021/11/25 05:50:26;;;;;;;21.40;10.88;;;0.50;99.90;;;;;;5047556;28;20175;-80
2021/11/25 05:52:56;;;;;;;20.27;11.25;;;0.60;99.90;;;;;;5044944;28;20034;-78
2021/11/25 05:55:25;;;;;;;19.15;10.95;;;0.50;99.90;;;;;;5032254;28;20064;-79
2021/11/25 05:57:51;;;;;;;18.80;10.93;;;0.40;99.90;;;;;;5049824;28;20033;-78
2021/11/25 06:00:17;;;;;;;20.73;12.00;;;0.40;99.90;;;;;;5028628;28;20029;-78
2021/11/25 06:02:45;;;;;;;16.52;10.10;;;0.30;99.90;;;;;;5026421;28;20083;-77
2021/11/25 06:05:13;;;;;;;17.65;10.05;;;0.30;99.90;;;;;;5043913;28;20037;-77
2021/11/25 06:07:44;;;;;;;19.92;10.60;;;0.30;99.90;;;;;;5025970;28;20140;-79
2021/11/25 06:10:11;;;;;;;19.88;10.63;;;0.30;99.90;;;;;;5043857;28;20037;-78
2021/11/25 06:12:36;;;;;;;20.35;11.98;;;0.30;99.90;;;;;;5049143;28;20021;-79
2021/11/25 06:15:03;;;;;;;20.13;11.35;;;0.20;99.90;;;;;;5062617;28;20063;-79
2021/11/25 06:17:29;;;;;;;16.58;10.48;;;0.10;99.90;;;;;;5061489;28;20078;-79
2021/11/25 06:19:55;;;;;;;17.02;9.95;;;0.20;99.90;;;;;;5066902;28;20021;-79
2021/11/25 06:22:22;;;;;;;16.67;10.25;;;0.30;99.90;;;;;;5067206;28;20021;-78
2021/11/25 06:24:49;;;;;;;18.63;10.55;;;0.40;99.90;;;;;;5031774;28;20379;-79
2021/11/25 06:27:15;;;;;;;17.63;9.40;;;0.50;99.90;;;;;;5046019;28;20469;-78
2021/11/25 06:29:40;;;;;;;16.67;9.70;;;0.50;99.90;;;;;;5045275;28;20025;-78
2021/11/25 06:32:06;;;;;;;14.30;8.73;;;0.50;99.90;;;;;;5026689;28;20029;-78
2021/11/25 06:34:32;;;;;;;15.30;9.00;;;0.60;99.90;;;;;;5044990;28;20072;-79
2021/11/25 06:36:58;;;;;;;20.70;11.00;;;0.60;99.90;;;;;;5045217;28;20029;-79
2021/11/25 06:39:24;;;;;;;17.35;10.20;;;0.60;99.90;;;;;;5027696;28;20415;-80
2021/11/25 06:41:50;;;;;;;18.98;9.95;;;0.60;99.90;;;;;;5026905;28;20328;-79
2021/11/25 06:44:16;;;;;;;17.52;9.30;;;0.60;99.90;;;;;;5028126;28;20167;-79
2021/11/25 06:46:41;;;;;;;16.70;9.32;;;0.60;99.90;;;;;;5061510;28;20040;-78
2021/11/25 06:49:07;;;;;;;16.63;10.10;;;0.70;99.90;;;;;;5033129;28;20452;-78
2021/11/25 06:51:33;;;;;;;18.05;10.80;;;0.80;99.90;;;;;;5044783;28;20017;-78
2021/11/25 06:54:00;;;;;;;18.52;10.80;;;0.80;99.90;;;;;;5040526;28;20343;-77
2021/11/25 06:56:26;;;;;;;18.38;9.48;;;0.80;99.90;;;;;;5047748;28;20021;-78
2021/11/25 06:58:53;;;;;;;16.45;9.38;;;0.80;99.90;;;;;;5028779;28;20029;-78
2021/11/25 07:01:19;;;;;;;16.48;9.63;;;0.90;99.90;;;;;;5033887;28;20045;-79
2021/11/25 07:03:45;;;;;;;13.60;8.63;;;0.90;99.90;;;;;;5032551;28;20489;-79
2021/11/25 07:06:10;;;;;;;16.30;9.82;;;0.90;99.90;;;;;;5033142;28;20322;-78
2021/11/25 07:08:36;;;;;;;20.38;10.85;;;0.90;99.90;;;;;;5014571;28;20068;-79
2021/11/25 07:11:02;;;;;;;16.77;9.95;;;0.90;99.90;;;;;;5038034;28;20044;-80
2021/11/25 07:13:28;;;;;;;16.92;8.77;;;0.90;99.90;;;;;;5037360;28;20022;-80
2021/11/25 07:15:55;;;;;;;16.92;8.68;;;0.90;99.90;;;;;;5037372;28;20144;-80
2021/11/25 07:18:21;;;;;;;12.52;7.93;;;0.80;99.90;;;;;;5034039;28;20022;-80
2021/11/25 07:20:47;;;;;;;14.60;8.68;;;0.80;99.90;;;;;;5039417;28;20018;-78
2021/11/25 07:23:13;;;;;;;12.93;8.18;;;0.80;99.90;;;;;;5036098;28;20052;-79
2021/11/25 07:25:39;;;;;;;14.82;8.13;;;0.80;99.90;;;;;;5040285;28;20187;-80
2021/11/25 07:28:05;;;;;;;12.23;7.78;;;0.90;99.90;;;;;;5032175;28;20022;-80
2021/11/25 07:30:31;;;;;;;15.27;8.80;;;1.00;99.90;;;;;;5032777;28;20068;-80
2021/11/25 07:32:57;;;;;;;14.82;8.20;;;1.00;99.90;;;;;;5017569;28;20044;-78
2021/11/25 07:35:23;;;;;;;14.57;8.65;;;1.00;99.90;;;;;;5035722;28;20096;-80
2021/11/25 07:37:52;;;;;;;14.50;9.27;;;1.10;99.90;;;;;;5036351;28;20153;-79
2021/11/25 07:40:19;;;;;;;14.25;8.73;;;1.00;99.90;;;;;;5054462;28;20006;-79
2021/11/25 07:42:46;;;;;;;15.13;9.48;;;0.90;99.90;;;;;;5048371;28;20017;-78
2021/11/25 07:45:12;;;;;;;17.13;9.27;;;0.90;99.90;;;;;;5026085;28;20018;-79
2021/11/25 07:47:38;;;;;;;18.77;10.35;;;1.00;99.90;;;;;;5042327;28;20072;-80
2021/11/25 07:50:14;;;;;;;18.75;10.20;;;0.90;99.90;;;;;;5017733;28;20108;-79
2021/11/25 07:52:41;;;;;;;19.65;10.95;;;0.90;99.90;;;;;;5020356;28;20025;-79
2021/11/25 07:55:11;;;;;;;18.67;10.88;;;0.90;99.90;;;;;;5020644;28;20040;-79
2021/11/25 07:57:39;;;;;;;15.90;9.05;;;0.90;99.90;;;;;;5021095;28;20032;-80
2021/11/25 08:00:06;;;;;;;18.52;9.85;;;0.90;99.90;;;;;;5034072;28;20113;-79
2021/11/25 08:02:50;;;;;;;20.00;10.80;;;1.00;99.90;;;;;;5034915;28;20113;-79
2021/11/25 08:05:16;;;;;;;18.45;10.02;;;1.00;99.90;;;;;;5028154;28;20428;-80
2021/11/25 08:07:43;;;;;;;17.15;9.70;;;1.00;99.90;;;;;;5024111;28;20037;-79
2021/11/25 08:10:12;;;;;;;14.80;9.20;;;1.10;99.90;;;;;;5047692;28;20029;-78
2021/11/25 08:12:38;;;;;;;16.33;9.55;;;1.30;99.90;;;;;;5050938;28;20056;-78
2021/11/25 08:15:06;;;;;;;15.88;9.55;;;1.30;99.90;;;;;;5059267;28;20117;-78
2021/11/25 08:17:32;;;;;;;18.08;9.80;;;1.40;99.90;;;;;;5037182;28;20079;-79
2021/11/25 08:19:58;;;;;;;17.13;9.10;;;1.60;99.90;;;;;;5030935;28;20167;-79
2021/11/25 08:22:23;;;;;;;15.57;8.90;;;1.70;99.90;;;;;;5030095;28;20045;-78
2021/11/25 08:24:50;;;;;;;16.88;9.50;;;1.70;99.90;;;;;;5032595;28;20125;-78
2021/11/25 08:27:16;;;;;;;18.05;10.52;;;1.60;99.90;;;;;;5032946;28;20094;-79
2021/11/25 08:29:42;;;;;;;17.25;9.95;;;1.40;99.90;;;;;;5035589;28;20029;-79
2021/11/25 08:32:09;;;;;;;17.00;10.05;;;1.20;99.90;;;;;;5045212;28;20029;-79
2021/11/25 08:34:35;;;;;;;14.80;9.45;;;1.20;99.90;;;;;;5044228;28;20076;-80
2021/11/25 08:37:01;;;;;;;14.80;8.98;;;1.30;99.90;;;;;;5027102;28;20053;-78
2021/11/25 08:39:27;;;;;;;13.52;9.18;;;1.40;99.90;;;;;;5029308;28;20032;-78
2021/11/25 08:41:53;;;;;;;13.90;8.93;;;1.60;99.90;;;;;;5052271;28;20049;-78
2021/11/25 08:44:22;;;;;;;15.18;9.63;;;1.80;99.90;;;;;;5041963;28;20017;-80
2021/11/25 08:46:48;;;;;;;13.13;8.27;;;1.80;99.90;;;;;;5062836;28;20081;-79
2021/11/25 08:49:13;;;;;;;15.80;8.05;;;2.00;99.90;;;;;;5034999;28;20014;-79
2021/11/25 08:51:39;;;;;;;13.30;8.13;;;2.20;99.90;;;;;;5031879;28;20106;-79
2021/11/25 08:54:06;;;;;;;16.15;9.18;;;2.20;99.90;;;;;;5029883;28;20033;-79
2021/11/25 08:56:32;;;;;;;16.05;9.75;;;2.40;99.90;;;;;;5050564;28;20045;-79
2021/11/25 08:58:58;;;;;;;14.88;8.88;;;2.40;99.90;;;;;;5044123;28;20121;-79
2021/11/25 09:01:24;;;;;;;13.02;8.05;;;2.30;99.90;;;;;;5026389;28;20025;-79
2021/11/25 09:03:51;;;;;;;13.50;8.25;;;2.30;99.90;;;;;;5045628;28;20051;-79
2021/11/25 09:06:18;;;;;;;10.85;7.20;;;2.50;99.90;;;;;;5044539;28;20024;-79
2021/11/25 09:08:43;;;;;;;11.98;7.90;;;2.70;99.90;;;;;;5044620;28;20108;-79
2021/11/25 09:11:10;;;;;;;11.35;7.18;;;2.80;99.90;;;;;;5044128;28;20048;-78
2021/11/25 09:13:36;;;;;;;15.68;8.52;;;2.80;99.90;;;;;;5044562;28;20067;-79
2021/11/25 09:16:02;;;;;;;11.45;7.40;;;2.80;99.90;;;;;;5026549;28;20036;-80
2021/11/25 09:18:28;;;;;;;15.23;8.75;;;2.90;99.70;;;;;;5026962;28;20035;-80
2021/11/25 09:20:54;;;;;;;13.35;9.07;;;2.90;99.20;;;;;;5044828;28;20017;-78
2021/11/25 09:23:20;;;;;;;15.27;8.65;;;2.90;98.90;;;;;;5044456;28;20292;-77
2021/11/25 09:25:48;;;;;;;13.20;8.68;;;3.00;99.20;;;;;;5040194;28;20078;-78
2021/11/25 09:28:27;;;;;;;12.13;8.10;;;3.00;99.00;;;;;;5025295;28;20029;-78
2021/11/25 09:30:54;;;;;;;12.55;8.43;;;3.10;99.10;;;;;;5041985;28;20178;-78
2021/11/25 09:33:20;;;;;;;11.02;7.63;;;3.20;98.70;;;;;;5025168;28;20056;-78
2021/11/25 09:35:48;;;;;;;11.77;7.78;;;3.20;98.50;;;;;;5045432;28;20025;-78
2021/11/25 09:38:15;;;;;;;11.75;7.80;;;3.20;98.40;;;;;;5025471;28;20025;-78
2021/11/25 09:40:43;;;;;;;12.45;8.25;;;3.40;98.40;;;;;;5040869;28;20097;-78
2021/11/25 09:43:11;;;;;;;14.63;8.20;;;3.50;97.50;;;;;;5044115;28;20097;-79
2021/11/25 09:45:40;;;;;;;11.88;7.95;;;3.60;97.40;;;;;;5040013;28;20013;-79
2021/11/25 09:48:11;;;;;;;12.30;7.75;;;3.80;97.20;;;;;;5044829;28;20056;-79
2021/11/25 09:50:40;;;;;;;10.95;7.35;;;3.90;96.60;;;;;;5054874;28;20022;-78
2021/11/25 09:53:08;;;;;;;11.90;7.30;;;3.90;96.20;;;;;;5042980;28;20045;-80
2021/11/25 09:55:36;;;;;;;11.88;7.78;;;3.90;96.10;;;;;;5026544;28;20029;-78
2021/11/25 09:58:04;;;;;;;15.02;8.32;;;3.80;95.60;;;;;;5044429;28;20561;-79
2021/11/25 10:00:32;;;;;;;14.98;9.18;;;3.60;95.40;;;;;;5044211;28;20026;-79
2021/11/25 10:02:59;;;;;;;14.25;8.77;;;3.40;95.80;;;;;;5046065;28;20045;-78
2021/11/25 10:05:25;;;;;;;13.65;8.27;;;3.40;96.30;;;;;;5043259;28;20027;-78
2021/11/25 10:07:51;;;;;;;12.50;8.98;;;3.60;96.40;;;;;;5043156;28;20033;-79
2021/11/25 10:10:24;;;;;;;13.82;8.90;;;3.80;96.30;;;;;;5049742;28;20043;-78
2021/11/25 10:12:54;;;;;;;18.30;10.10;;;4.10;95.90;;;;;;5053180;28;20029;-79
2021/11/25 10:15:30;;;;;;;20.95;12.02;;;4.30;95.20;;;;;;5065250;28;20076;-79
2021/11/25 10:17:59;;;;;;;15.82;9.80;;;4.30;93.50;;;;;;5053969;28;20052;-79
2021/11/25 10:20:30;;;;;;;17.85;11.35;;;4.30;93.90;;;;;;5055130;28;20022;-79
2021/11/25 10:23:02;;;;;;;15.75;10.43;;;4.30;93.70;;;;;;5044564;28;20443;-77
2021/11/25 10:25:51;;;;;;;18.85;12.20;;;4.20;94.10;;;;;;5046797;28;20478;-77
2021/11/25 10:28:37;;;;;;;22.60;12.50;;;4.30;93.70;;;;;;5045405;28;20028;-79
2021/11/25 10:31:22;;;;;;;22.85;12.13;;;4.20;93.20;;;;;;5047137;28;20036;-78
2021/11/25 10:34:13;;;;;;;21.55;11.70;;;4.10;93.70;;;;;;5046888;28;20450;-79
2021/11/25 10:41:51;;;;;;;20.20;11.93;;;4.10;94.40;;;;;;5046517;28;20017;-78
2021/11/25 10:44:30;;;;;;;26.85;13.80;;;4.20;94.40;;;;;;5047939;28;20020;-78
2021/11/25 10:47:04;;;;;;;27.83;12.43;;;4.40;93.10;;;;;;5035465;28;20458;-78
2021/11/25 10:50:00;;;;;;;25.95;13.88;;;4.40;93.30;;;;;;5028882;28;20034;-78
2021/11/25 10:52:43;;;;;;;23.77;12.50;;;4.30;93.20;;;;;;5046160;28;20033;-79
2021/11/25 10:55:15;;;;;;;20.85;12.80;;;4.20;93.60;;;;;;5031847;28;20055;-78
2021/11/25 10:57:53;;;;;;;22.40;13.38;;;4.20;93.20;;;;;;5032122;28;20089;-79
2021/11/25 11:00:39;;;;;;;20.40;12.25;;;4.00;93.70;;;;;;5047199;28;20026;-78
2021/11/25 11:03:07;;;;;;;22.35;13.95;;;3.90;94.40;;;;;;5043297;28;20018;-77
2021/11/25 11:05:46;;;;;;;20.67;12.60;;;4.00;94.30;;;;;;5044242;28;20041;-78
2021/11/25 11:08:12;;;;;;;24.85;12.63;;;4.10;93.90;;;;;;5047068;28;20397;-78
2021/11/25 11:10:56;;;;;;;22.98;13.73;;;4.30;94.10;;;;;;5046610;28;20014;-78
2021/11/25 11:18:53;;;;;;;22.33;13.27;;;4.90;93.70;;;;;;5068865;28;20045;-79
2021/11/25 11:21:44;;;;;;;24.17;14.05;;;5.20;92.30;;;;;;5050418;28;20021;-78
2021/11/25 11:24:26;;;;;;;22.88;13.98;;;5.00;92.00;;;;;;5045179;28;20147;-78
2021/11/25 11:26:58;;;;;;;23.27;13.83;;;4.90;91.40;;;;;;5051748;28;20021;-77
2021/11/25 11:29:26;;;;;;;21.63;14.17;;;4.70;91.90;;;;;;5045312;28;20038;-78
2021/11/25 11:31:56;;;;;;;23.65;13.98;;;4.50;92.40;;;;;;5044469;28;20812;-78
2021/11/25 11:34:23;;;;;;;24.17;13.93;;;4.40;92.60;;;;;;5027404;28;20029;-78
2021/11/25 11:36:52;;;;;;;23.90;13.50;;;4.30;93.20;;;;;;5044263;28;20037;-79
2021/11/25 11:39:24;;;;;;;26.38;14.52;;;4.20;93.40;;;;;;5047849;28;20014;-79
2021/11/25 11:41:52;;;;;;;24.52;14.20;;;4.20;93.00;;;;;;5046446;28;20048;-79
2021/11/25 11:44:22;;;;;;;25.42;14.23;;;4.10;93.00;;;;;;5053496;28;20025;-78
2021/11/25 11:46:50;;;;;;;23.05;13.90;;;4.10;93.60;;;;;;5048299;28;20103;-79
2021/11/25 11:49:21;;;;;;;24.13;14.20;;;4.00;93.80;;;;;;5047317;28;20025;-79
2021/11/25 11:52:23;;;;;;;26.23;14.38;;;4.00;93.90;;;;;;5052822;28;20021;-79
2021/11/25 11:54:52;;;;;;;22.75;13.85;;;3.90;94.20;;;;;;5000767;28;20033;-78
2021/11/25 11:57:40;;;;;;;21.60;12.30;;;3.90;94.50;;;;;;5047992;28;20036;-82
2021/11/25 12:00:20;;;;;;;28.42;14.50;;;4.00;94.80;;;;;;5052214;28;20026;-77
2021/11/25 12:02:49;;;;;;;22.75;14.13;;;3.80;94.20;;;;;;5045865;28;20018;-78
2021/11/25 12:05:43;;;;;;;26.40;14.55;;;3.70;94.90;;;;;;5028725;28;20026;-78
2021/11/25 12:08:21;;;;;;;24.00;13.57;;;3.70;95.00;;;;;;5045226;28;20025;-77
2021/11/25 12:10:58;;;;;;;22.58;13.40;;;3.70;95.30;;;;;;5042749;28;20075;-77
2021/11/25 12:13:27;;;;;;;24.20;13.93;;;3.70;95.40;;;;;;5027845;28;20297;-78
2021/11/25 12:16:22;;;;;;;27.83;15.68;;;3.70;94.90;;;;;;5053533;28;20061;-79
2021/11/25 12:18:54;;;;;;;26.55;14.25;;;3.60;95.00;;;;;;5043900;28;20041;-80
2021/11/25 12:21:29;;;;;;;25.67;14.35;;;3.50;95.60;;;;;;5044051;28;20036;-79
2021/11/25 12:24:17;;;;;;;27.08;14.63;;;3.50;96.10;;;;;;5063366;28;20152;-83
2021/11/25 12:27:05;;;;;;;27.75;15.38;;;3.40;96.30;;;;;;5031724;28;20037;-80
2021/11/25 12:29:49;;;;;;;28.10;14.77;;;3.40;96.30;;;;;;5049798;28;20029;-79
2021/11/25 12:35:04;;;;;;;28.42;15.95;;;3.20;96.40;;;;;;5054306;28;20013;-79
2021/11/25 12:37:49;;;;;;;30.60;15.57;;;3.00;96.60;;;;;;5053026;28;20362;-79
2021/11/25 12:40:15;;;;;;;29.27;14.90;;;2.70;97.30;;;;;;5050599;28;20013;-80
2021/11/25 12:42:48;;;;;;;28.75;16.55;;;2.70;97.70;;;;;;5045199;28;20022;-79
2021/11/25 12:45:22;;;;;;;30.48;16.42;;;2.50;98.00;;;;;;5049270;28;20071;-80
2021/11/25 12:47:48;;;;;;;26.08;15.20;;;2.50;98.30;;;;;;5027681;28;20029;-79
2021/11/25 12:50:16;;;;;;;26.95;15.10;;;2.50;98.60;;;;;;5034086;28;20052;-79
2021/11/25 12:52:41;;;;;;;30.02;16.00;;;2.50;99.00;;;;;;5021406;28;20025;-80
2021/11/25 12:55:10;;;;;;;28.02;15.90;;;2.60;99.00;;;;;;5021107;28;20033;-80
2021/11/25 12:57:54;;;;;;;28.95;16.40;;;2.70;98.50;;;;;;5003940;28;20075;-81
2021/11/25 13:00:28;;;;;;;26.15;13.73;;;2.70;98.40;;;;;;5035025;28;20037;-79
2021/11/25 13:03:03;;;;;;;27.40;15.40;;;2.80;98.80;;;;;;5026697;28;20026;-81
2021/11/25 13:05:29;;;;;;;27.25;15.05;;;2.90;99.00;;;;;;5046767;28;20048;-78
2021/11/25 13:07:56;;;;;;;25.65;15.10;;;2.90;98.70;;;;;;5031721;28;20021;-79